Time;durP1;ratioP1;P1;durP2;ratioP2;P2;SDS_P1;SDS_P2;PMS_P1;PMS_P2;Temp;Humidity;BMP_temperature;BMP_pressure;BME280_temperature;BME280_humidity;BME280_pressure;Samples;Min_cycle;Max_cycle;Signal;HPM_P1;HPM_P2
2022/11/04 00:01:21;;;;;;;6.30;1.83;;;14.10;99.90;;;;;;5069622;28;20024;-62
2022/11/04 00:03:46;;;;;;;5.65;2.08;;;14.10;99.90;;;;;;5058132;28;20492;-60
2022/11/04 00:06:12;;;;;;;7.45;1.73;;;14.10;99.90;;;;;;5064611;28;20029;-61
2022/11/04 00:08:37;;;;;;;3.58;2.00;;;14.10;99.90;;;;;;5065481;28;20043;-60
2022/11/04 00:13:47;;;;;;;5.20;1.92;;;14.00;99.90;;;;;;5068277;28;20390;-61
2022/11/04 00:19:00;;;;;;;5.05;2.15;;;14.00;99.90;;;;;;5058982;28;20501;-60
2022/11/04 00:29:40;;;;;;;4.88;1.95;;;13.80;99.90;;;;;;5054579;28;20512;-60
2022/11/04 00:34:50;;;;;;;5.38;2.40;;;13.80;99.90;;;;;;5054227;28;20083;-60
2022/11/04 00:37:16;;;;;;;4.22;2.47;;;13.80;99.90;;;;;;5053788;28;20052;-60
2022/11/04 00:39:41;;;;;;;3.60;2.13;;;13.70;99.90;;;;;;5053979;28;20060;-60
2022/11/04 00:42:07;;;;;;;3.45;2.03;;;13.70;99.90;;;;;;5053690;28;20466;-64
2022/11/04 00:44:32;;;;;;;5.13;2.22;;;13.70;99.90;;;;;;5053896;28;20107;-60
2022/11/04 00:46:58;;;;;;;5.72;2.10;;;13.80;99.90;;;;;;5053127;28;20021;-71
2022/11/04 00:49:23;;;;;;;7.32;2.60;;;13.70;99.90;;;;;;5053877;28;20024;-61
2022/11/04 00:51:49;;;;;;;5.53;2.53;;;13.70;99.90;;;;;;5053637;28;20057;-60
2022/11/04 00:54:15;;;;;;;6.05;2.35;;;13.70;99.90;;;;;;5053413;28;20123;-67
2022/11/04 00:56:41;;;;;;;4.68;1.95;;;13.70;99.90;;;;;;5053623;28;20029;-61
2022/11/04 00:59:06;;;;;;;5.20;2.28;;;13.60;99.90;;;;;;5053463;28;20032;-60
2022/11/04 01:01:32;;;;;;;4.55;2.80;;;13.60;99.90;;;;;;5053186;28;20024;-59
2022/11/04 01:03:58;;;;;;;4.63;2.40;;;13.60;99.90;;;;;;5053336;28;20110;-61
2022/11/04 01:06:25;;;;;;;5.30;2.28;;;13.60;99.90;;;;;;5053520;28;20021;-64
2022/11/04 01:09:03;;;;;;;4.25;2.10;;;13.50;99.90;;;;;;5053576;28;20032;-64
2022/11/04 01:11:30;;;;;;;6.57;2.17;;;13.50;99.90;;;;;;5053386;28;20040;-60
2022/11/04 01:13:56;;;;;;;5.00;2.55;;;13.50;99.90;;;;;;5053367;28;20119;-61
2022/11/04 01:16:23;;;;;;;6.80;2.22;;;13.50;99.90;;;;;;5053024;28;20025;-63
2022/11/04 01:18:49;;;;;;;7.28;2.70;;;13.40;99.90;;;;;;5053090;28;20028;-60
2022/11/04 01:21:15;;;;;;;7.65;2.67;;;13.50;99.90;;;;;;5053125;28;20040;-60
2022/11/04 01:23:42;;;;;;;5.30;2.35;;;13.50;99.90;;;;;;5053562;28;20071;-60
2022/11/04 01:26:11;;;;;;;7.63;2.38;;;13.50;99.90;;;;;;5052997;28;20041;-60
2022/11/04 01:28:36;;;;;;;4.85;2.42;;;13.40;99.90;;;;;;5052830;28;20029;-60
2022/11/04 01:31:14;;;;;;;6.88;2.60;;;13.50;99.90;;;;;;5052919;28;20017;-60
2022/11/04 01:33:39;;;;;;;5.32;2.30;;;13.40;99.90;;;;;;5052847;28;20056;-65
2022/11/04 01:36:07;;;;;;;15.05;2.40;;;13.40;99.90;;;;;;5052918;28;20021;-62
2022/11/04 01:38:33;;;;;;;8.38;2.25;;;13.40;99.90;;;;;;5052936;28;20036;-60
2022/11/04 01:40:58;;;;;;;5.60;1.80;;;13.40;99.90;;;;;;5052899;28;20021;-60
2022/11/04 01:43:44;;;;;;;5.75;1.70;;;13.40;99.90;;;;;;5052816;28;20466;-60
2022/11/04 01:46:20;;;;;;;5.93;1.85;;;13.40;99.90;;;;;;5052501;28;20021;-64
2022/11/04 01:48:46;;;;;;;7.18;1.85;;;13.30;99.90;;;;;;5052819;28;20225;-62
2022/11/04 01:51:13;;;;;;;7.85;1.50;;;13.40;99.90;;;;;;5051473;28;20059;-61
2022/11/04 01:53:40;;;;;;;6.45;2.22;;;13.40;99.90;;;;;;5052589;28;20367;-61
2022/11/04 01:56:13;;;;;;;3.55;1.52;;;13.40;99.90;;;;;;5053202;28;20032;-59
2022/11/04 01:58:48;;;;;;;5.35;1.63;;;13.40;99.90;;;;;;5052706;28;20033;-60
2022/11/04 02:01:14;;;;;;;5.38;1.90;;;13.40;99.90;;;;;;5052567;28;20432;-62
2022/11/04 02:03:51;;;;;;;6.43;1.95;;;13.40;99.90;;;;;;5055629;28;20572;-61
2022/11/04 02:06:19;;;;;;;4.88;1.45;;;13.40;99.90;;;;;;5056775;28;20424;-68
2022/11/04 02:08:46;;;;;;;4.88;1.98;;;13.30;99.90;;;;;;5057021;28;20017;-70
2022/11/04 02:12:48;;;;;;;6.18;1.70;;;13.40;99.90;;;;;;5056801;28;20052;-71
2022/11/04 02:13:57;;;;;;;8.77;1.45;;;13.30;99.90;;;;;;5056123;28;20044;-73
2022/11/04 02:16:41;;;;;;;6.15;1.40;;;13.30;99.90;;;;;;5056425;28;20025;-73
2022/11/04 02:19:44;;;;;;;6.57;1.60;;;13.40;99.90;;;;;;5056569;28;20513;-71
2022/11/04 02:22:49;;;;;;;7.43;2.05;;;13.30;99.90;;;;;;5056548;28;20424;-72
2022/11/04 02:25:29;;;;;;;10.10;2.17;;;13.40;99.90;;;;;;5056212;28;20090;-70
2022/11/04 02:28:19;;;;;;;6.88;2.05;;;13.40;99.90;;;;;;5056414;28;20524;-72
2022/11/04 02:30:54;;;;;;;6.68;1.65;;;13.30;99.90;;;;;;5056389;28;20032;-71
2022/11/04 02:33:42;;;;;;;5.82;1.70;;;13.30;99.90;;;;;;5056160;28;20474;-71
2022/11/04 02:36:18;;;;;;;7.32;1.70;;;13.30;99.90;;;;;;5055481;28;20037;-68
2022/11/04 02:39:02;;;;;;;6.82;1.92;;;13.30;99.90;;;;;;5056427;28;20025;-64
2022/11/04 02:41:56;;;;;;;9.02;1.83;;;13.20;99.90;;;;;;5055990;28;20028;-62
2022/11/04 02:44:36;;;;;;;10.57;2.05;;;13.30;99.90;;;;;;5055645;28;20486;-60
2022/11/04 02:47:15;;;;;;;6.47;1.55;;;13.20;99.90;;;;;;5056124;28;20013;-62
2022/11/04 02:49:50;;;;;;;7.32;1.25;;;13.20;99.90;;;;;;5055811;28;20029;-67
2022/11/04 02:52:30;;;;;;;6.47;1.95;;;13.20;99.90;;;;;;5056033;28;20032;-68
2022/11/04 02:55:01;;;;;;;8.13;1.88;;;13.30;99.90;;;;;;5055853;28;20040;-73
2022/11/04 02:57:31;;;;;;;8.90;2.08;;;13.20;99.90;;;;;;5055391;28;20037;-65
2022/11/04 03:00:01;;;;;;;5.07;1.35;;;13.20;99.90;;;;;;5055948;28;20049;-61
2022/11/04 03:02:32;;;;;;;7.93;1.85;;;13.20;99.90;;;;;;5055664;28;20100;-71
2022/11/04 03:04:58;;;;;;;7.28;1.70;;;13.20;99.90;;;;;;5055704;28;20519;-71
2022/11/04 03:07:30;;;;;;;9.80;2.17;;;13.20;99.90;;;;;;5055778;28;20483;-72
2022/11/04 03:10:03;;;;;;;7.00;1.90;;;13.20;99.90;;;;;;5055540;28;20028;-65
2022/11/04 03:12:37;;;;;;;8.35;2.00;;;13.20;99.90;;;;;;5055230;28;20076;-61
2022/11/04 03:15:08;;;;;;;9.68;1.73;;;13.10;99.90;;;;;;5054199;28;20040;-61
2022/11/04 03:17:49;;;;;;;10.38;1.73;;;13.20;99.90;;;;;;5055810;28;20110;-68
2022/11/04 03:20:22;;;;;;;7.28;1.80;;;13.20;99.90;;;;;;5055383;28;20025;-72
2022/11/04 03:22:48;;;;;;;12.70;1.90;;;13.10;99.90;;;;;;5055451;28;20032;-70
2022/11/04 03:25:14;;;;;;;7.13;1.67;;;13.20;99.90;;;;;;5055005;28;20025;-72
2022/11/04 03:27:39;;;;;;;10.52;2.20;;;13.10;99.90;;;;;;5055130;28;20470;-69
2022/11/04 03:30:12;;;;;;;8.80;2.00;;;13.10;99.90;;;;;;5055397;28;20035;-60
2022/11/04 03:32:40;;;;;;;8.57;2.20;;;13.10;99.90;;;;;;5055040;28;20025;-71
2022/11/04 03:35:07;;;;;;;8.68;2.20;;;13.10;99.90;;;;;;5055620;28;20036;-63
2022/11/04 03:37:33;;;;;;;6.60;2.13;;;13.10;99.90;;;;;;5055113;28;20044;-70
2022/11/04 03:39:59;;;;;;;7.10;1.83;;;13.10;99.90;;;;;;5055158;28;20517;-73
2022/11/04 03:42:26;;;;;;;9.70;1.65;;;13.10;99.90;;;;;;5054671;28;20021;-60
2022/11/04 03:44:57;;;;;;;9.43;1.95;;;13.10;99.90;;;;;;5055037;28;20025;-68
2022/11/04 03:47:25;;;;;;;9.60;2.03;;;13.10;99.90;;;;;;5054823;28;20021;-71
2022/11/04 03:49:58;;;;;;;7.50;1.88;;;13.00;99.90;;;;;;5055046;28;20017;-72
2022/11/04 03:52:23;;;;;;;7.68;2.83;;;13.10;99.90;;;;;;5054497;28;20029;-73
2022/11/04 03:54:49;;;;;;;7.97;1.92;;;13.00;99.90;;;;;;5053641;28;20032;-69
2022/11/04 03:57:26;;;;;;;8.00;2.28;;;13.00;99.90;;;;;;5054199;28;20087;-72
2022/11/04 04:00:06;;;;;;;12.50;2.15;;;13.00;99.90;;;;;;5054880;28;20029;-72
2022/11/04 04:02:47;;;;;;;8.10;2.38;;;13.00;99.90;;;;;;5054575;28;20102;-73
2022/11/04 04:05:32;;;;;;;8.30;2.15;;;13.00;99.90;;;;;;5047135;28;20030;-62
2022/11/04 04:08:09;;;;;;;6.80;2.05;;;13.00;99.90;;;;;;5034696;28;20045;-66
2022/11/04 04:10:41;;;;;;;7.28;2.08;;;12.90;99.90;;;;;;5048147;28;20059;-72
2022/11/04 04:13:37;;;;;;;12.27;2.88;;;12.90;99.90;;;;;;5037576;28;20389;-71
2022/11/04 04:16:02;;;;;;;8.68;2.15;;;12.90;99.90;;;;;;5040428;28;20071;-68
2022/11/04 04:18:34;;;;;;;7.47;2.20;;;12.90;99.90;;;;;;5034024;28;20025;-72
2022/11/04 04:21:03;;;;;;;9.32;2.30;;;12.90;99.90;;;;;;5047161;28;20037;-65
2022/11/04 04:29:06;;;;;;;8.20;2.38;;;12.90;99.90;;;;;;5043866;28;20103;-69
2022/11/04 04:31:49;;;;;;;9.38;2.28;;;12.80;99.90;;;;;;5054094;28;20027;-69
2022/11/04 04:34:21;;;;;;;7.90;2.33;;;12.90;99.90;;;;;;5053738;28;20029;-63
2022/11/04 04:37:05;;;;;;;9.48;2.70;;;12.90;99.90;;;;;;5053812;28;20017;-68
2022/11/04 04:45:32;;;;;;;7.10;2.67;;;12.80;99.90;;;;;;5053807;28;20532;-71
2022/11/04 04:47:58;;;;;;;9.95;2.80;;;12.80;99.90;;;;;;5053780;28;20025;-71
2022/11/04 04:50:27;;;;;;;7.75;2.58;;;12.80;99.90;;;;;;5053739;28;20067;-59
2022/11/04 04:52:56;;;;;;;9.20;2.40;;;12.80;99.90;;;;;;5052964;28;20039;-62
2022/11/04 04:55:21;;;;;;;9.57;2.72;;;12.80;99.90;;;;;;5053253;28;20029;-64
2022/11/04 04:57:47;;;;;;;8.90;2.72;;;12.80;99.90;;;;;;5053478;28;20052;-61
2022/11/04 05:00:19;;;;;;;10.80;2.78;;;12.80;99.90;;;;;;5053725;28;20021;-71
2022/11/04 05:02:44;;;;;;;10.05;2.83;;;12.80;99.90;;;;;;5052428;28;20021;-70
2022/11/04 05:05:12;;;;;;;12.45;3.33;;;12.80;99.90;;;;;;5053458;28;20017;-67
2022/11/04 05:07:38;;;;;;;6.85;2.55;;;12.80;99.90;;;;;;5052855;28;20489;-70
2022/11/04 05:10:04;;;;;;;9.25;2.78;;;12.80;99.90;;;;;;5053586;28;20121;-62
2022/11/04 05:13:24;;;;;;;7.65;2.80;;;12.80;99.90;;;;;;5053150;28;20036;-59
2022/11/04 05:15:16;;;;;;;7.68;2.42;;;12.80;99.90;;;;;;5053381;28;20033;-64
2022/11/04 05:17:41;;;;;;;8.02;2.78;;;12.70;99.90;;;;;;5053006;28;20370;-70
2022/11/04 05:20:08;;;;;;;11.25;3.28;;;12.80;99.90;;;;;;5053130;28;20099;-65
2022/11/04 05:22:34;;;;;;;10.77;3.03;;;12.80;99.90;;;;;;5052918;28;20367;-68
2022/11/04 05:24:59;;;;;;;9.45;3.05;;;12.80;99.90;;;;;;5052896;28;20565;-69
2022/11/04 05:27:25;;;;;;;11.80;3.42;;;12.80;99.90;;;;;;5053076;28;20040;-59
2022/11/04 05:29:50;;;;;;;9.88;3.67;;;12.80;99.90;;;;;;5051781;28;20104;-60
2022/11/04 05:32:16;;;;;;;7.15;3.15;;;12.80;99.90;;;;;;5052930;28;20500;-59
2022/11/04 05:34:41;;;;;;;11.77;3.63;;;12.80;99.90;;;;;;5052911;28;20069;-59
2022/11/04 05:37:07;;;;;;;9.55;3.38;;;12.80;99.90;;;;;;5051849;28;20017;-69
2022/11/04 05:39:33;;;;;;;11.38;4.10;;;12.80;99.90;;;;;;5052965;28;20036;-59
2022/11/04 05:41:59;;;;;;;7.85;3.33;;;12.80;99.90;;;;;;5053188;28;20518;-66
2022/11/04 05:44:25;;;;;;;8.75;3.65;;;12.80;99.90;;;;;;5052923;28;20102;-72
2022/11/04 05:46:51;;;;;;;10.90;3.78;;;12.80;99.90;;;;;;5049621;28;20056;-62
2022/11/04 05:49:16;;;;;;;8.73;3.20;;;12.80;99.90;;;;;;5041304;28;20048;-58
2022/11/04 05:51:42;;;;;;;12.55;3.15;;;12.80;99.90;;;;;;5038187;28;20105;-59
2022/11/04 05:54:08;;;;;;;8.35;3.45;;;12.80;99.90;;;;;;5046306;28;20036;-64
2022/11/04 05:56:33;;;;;;;6.93;3.45;;;12.80;99.90;;;;;;5041602;28;20103;-59
2022/11/04 05:58:59;;;;;;;8.00;2.97;;;12.80;99.90;;;;;;5044152;28;20021;-66
2022/11/04 06:01:39;;;;;;;10.70;3.50;;;12.80;99.90;;;;;;5048170;28;20576;-67
2022/11/04 06:04:06;;;;;;;8.48;3.10;;;12.80;99.90;;;;;;5050194;28;20040;-72
2022/11/04 06:06:34;;;;;;;8.30;3.42;;;12.90;99.90;;;;;;5050134;28;20450;-65
2022/11/04 06:09:01;;;;;;;5.78;1.88;;;12.90;99.90;;;;;;5051975;28;20021;-64
2022/11/04 06:11:28;;;;;;;12.60;3.40;;;12.90;99.90;;;;;;5052509;28;20025;-63
2022/11/04 06:13:55;;;;;;;10.38;3.22;;;13.00;99.90;;;;;;5052433;28;20469;-66
2022/11/04 06:16:21;;;;;;;9.77;3.83;;;13.00;99.90;;;;;;5052434;28;20424;-69
2022/11/04 06:18:47;;;;;;;10.05;3.70;;;12.90;99.90;;;;;;5052427;28;20104;-76
2022/11/04 06:21:12;;;;;;;8.70;3.58;;;12.90;99.90;;;;;;5051985;28;20104;-69
2022/11/04 06:23:39;;;;;;;10.27;4.70;;;12.90;99.90;;;;;;5050131;28;20036;-60
2022/11/04 06:26:05;;;;;;;10.43;3.67;;;12.90;99.90;;;;;;5047456;28;20021;-69
2022/11/04 06:28:31;;;;;;;10.13;4.03;;;12.90;99.90;;;;;;5050861;28;20032;-64
2022/11/04 06:30:58;;;;;;;10.73;3.45;;;12.90;99.90;;;;;;5050421;28;20021;-65
2022/11/04 06:33:24;;;;;;;8.77;3.50;;;12.90;99.90;;;;;;5045275;28;20124;-62
2022/11/04 06:35:50;;;;;;;10.98;4.18;;;12.90;99.90;;;;;;5051393;28;20120;-60
2022/11/04 06:38:16;;;;;;;10.88;4.10;;;12.90;99.90;;;;;;5052500;28;20064;-69
2022/11/04 06:40:41;;;;;;;12.48;4.43;;;12.90;99.90;;;;;;5052271;28;20025;-67
2022/11/04 06:43:07;;;;;;;15.23;3.53;;;13.00;99.90;;;;;;5046119;28;20021;-66
2022/11/04 06:45:33;;;;;;;6.70;3.40;;;13.10;99.90;;;;;;5067753;28;20036;-62
2022/11/04 06:47:58;;;;;;;8.20;3.47;;;13.00;99.90;;;;;;5059879;28;20074;-63
2022/11/04 06:50:24;;;;;;;10.25;3.67;;;13.00;99.90;;;;;;5058952;28;20021;-66
2022/11/04 06:52:49;;;;;;;9.52;3.50;;;13.00;99.90;;;;;;5054277;28;20126;-72
2022/11/04 06:55:15;;;;;;;8.07;3.92;;;13.00;99.90;;;;;;5054587;28;20126;-63
2022/11/04 06:57:40;;;;;;;11.73;3.63;;;13.00;99.90;;;;;;5048857;28;20033;-61
2022/11/04 07:00:06;;;;;;;15.32;3.53;;;13.10;99.90;;;;;;5048292;28;20033;-62
2022/11/04 07:02:32;;;;;;;16.08;6.43;;;13.20;99.90;;;;;;5050667;28;20460;-72
2022/11/04 07:04:57;;;;;;;8.30;3.90;;;13.20;99.90;;;;;;5054035;28;20025;-63
2022/11/04 07:07:23;;;;;;;12.90;3.60;;;13.20;99.90;;;;;;5058818;28;20031;-63
2022/11/04 07:09:49;;;;;;;10.18;3.63;;;13.20;99.90;;;;;;5055017;28;20029;-68
2022/11/04 07:12:14;;;;;;;11.80;5.00;;;13.20;99.90;;;;;;5054068;28;20061;-67
2022/11/04 07:14:40;;;;;;;12.15;4.22;;;13.20;99.90;;;;;;5055497;28;20037;-70
2022/11/04 07:17:05;;;;;;;10.82;4.07;;;13.20;99.90;;;;;;5045485;28;20029;-64
2022/11/04 07:19:31;;;;;;;17.35;3.85;;;13.20;99.90;;;;;;5054666;28;20037;-67
2022/11/04 07:21:57;;;;;;;12.40;3.55;;;13.20;99.90;;;;;;5045556;28;20106;-66
2022/11/04 07:24:22;;;;;;;15.35;5.07;;;13.20;99.90;;;;;;5051818;28;20044;-72
2022/11/04 07:26:48;;;;;;;13.02;3.53;;;13.20;99.90;;;;;;5055943;28;20385;-68
2022/11/04 07:29:13;;;;;;;13.27;3.97;;;13.20;99.90;;;;;;5054953;28;20086;-72
2022/11/04 07:31:39;;;;;;;13.38;3.58;;;13.30;99.90;;;;;;5054596;28;20022;-71
2022/11/04 07:34:05;;;;;;;11.95;3.85;;;13.20;99.90;;;;;;5054626;28;20098;-72
2022/11/04 07:36:30;;;;;;;15.27;4.38;;;13.20;99.90;;;;;;5053687;28;20593;-71
2022/11/04 07:38:56;;;;;;;11.45;3.95;;;13.20;99.90;;;;;;5054577;28;20112;-68
2022/11/04 07:41:22;;;;;;;14.30;4.35;;;13.20;99.90;;;;;;5049139;28;20060;-68
2022/11/04 07:43:52;;;;;;;14.38;3.65;;;13.30;99.90;;;;;;5052235;28;20086;-65
2022/11/04 07:46:19;;;;;;;12.23;4.30;;;13.30;99.90;;;;;;5046751;28;20017;-72
2022/11/04 07:48:45;;;;;;;9.95;4.68;;;13.30;99.90;;;;;;5033324;28;20037;-73
2022/11/04 07:51:15;;;;;;;19.73;5.07;;;13.30;99.90;;;;;;5038830;28;20021;-66
2022/11/04 07:53:41;;;;;;;16.55;4.82;;;13.30;99.90;;;;;;5046032;28;20115;-71
2022/11/04 07:56:12;;;;;;;11.95;4.13;;;13.20;99.90;;;;;;5040949;28;20108;-71
2022/11/04 07:58:37;;;;;;;9.77;3.65;;;13.30;99.90;;;;;;5055786;28;20090;-69
2022/11/04 08:01:06;;;;;;;13.38;4.57;;;13.20;99.90;;;;;;5049726;28;20026;-75
2022/11/04 08:03:32;;;;;;;12.20;4.07;;;13.30;99.90;;;;;;5048921;28;20060;-67
2022/11/04 08:06:00;;;;;;;11.27;4.70;;;13.30;99.90;;;;;;5042906;28;20068;-71
2022/11/04 08:08:26;;;;;;;11.57;4.60;;;13.30;99.90;;;;;;5043403;28;20486;-66
2022/11/04 08:10:59;;;;;;;10.35;4.10;;;13.30;99.90;;;;;;5050342;28;20075;-65
2022/11/04 08:13:28;;;;;;;;;;;13.30;99.90;;;;;;5044529;28;20128;-67
2022/11/04 08:15:54;;;;;;;12.32;4.70;;;13.20;99.90;;;;;;5037994;28;19923;-68
2022/11/04 08:18:19;;;;;;;13.85;4.28;;;13.20;99.90;;;;;;5042626;28;20330;-74
2022/11/04 08:20:50;;;;;;;14.85;4.40;;;13.20;99.90;;;;;;5039233;28;20498;-72
2022/11/04 08:23:19;;;;;;;15.90;4.63;;;13.30;99.90;;;;;;5047001;28;20032;-75
2022/11/04 08:25:45;;;;;;;14.48;4.75;;;13.30;99.90;;;;;;5045965;28;20025;-70
2022/11/04 08:28:16;;;;;;;13.98;3.75;;;13.20;99.90;;;;;;5048995;28;20496;-77
2022/11/04 08:31:11;;;;;;;16.65;4.05;;;13.20;99.90;;;;;;5049093;28;20039;-74
2022/11/04 08:33:37;;;;;;;8.45;3.85;;;13.20;99.90;;;;;;5039581;28;20107;-76
2022/11/04 08:36:09;;;;;;;8.25;3.10;;;13.20;99.90;;;;;;5047839;28;20056;-69
2022/11/04 08:38:35;;;;;;;11.35;3.53;;;13.30;99.90;;;;;;5045134;28;20017;-73
2022/11/04 08:41:03;;;;;;;7.72;3.60;;;13.30;99.90;;;;;;5047038;28;20036;-73
2022/11/04 08:43:29;;;;;;;117.07;9.93;;;13.30;99.90;;;;;;5038340;28;20156;-74
2022/11/04 08:45:55;;;;;;;11.60;3.33;;;13.30;99.90;;;;;;5050645;28;20492;-61
2022/11/04 08:48:21;;;;;;;7.75;2.78;;;13.30;99.90;;;;;;5055152;28;20052;-61
2022/11/04 08:50:51;;;;;;;11.55;3.97;;;13.40;99.90;;;;;;5038559;28;20033;-66
2022/11/04 08:53:17;;;;;;;14.13;4.75;;;13.40;99.90;;;;;;5047065;28;20033;-62
2022/11/04 08:55:42;;;;;;;14.18;4.65;;;13.40;99.90;;;;;;5045318;28;20106;-65
2022/11/04 08:58:08;;;;;;;9.25;3.95;;;13.40;99.90;;;;;;5055284;28;20066;-61
2022/11/04 09:00:35;;;;;;;16.17;4.85;;;13.40;99.90;;;;;;5050433;28;20021;-64
2022/11/04 09:03:00;;;;;;;12.13;5.15;;;13.40;99.90;;;;;;5048175;28;20021;-70
2022/11/04 09:05:27;;;;;;;13.48;5.10;;;13.40;99.90;;;;;;5042782;28;20044;-62
2022/11/04 09:07:54;;;;;;;10.13;5.43;;;13.40;99.90;;;;;;5046465;28;20029;-65
2022/11/04 09:10:19;;;;;;;16.73;6.40;;;13.40;99.90;;;;;;5051838;28;20035;-62
2022/11/04 09:12:45;;;;;;;12.63;6.22;;;13.50;99.90;;;;;;5045861;28;20037;-61
2022/11/04 09:15:11;;;;;;;12.63;7.50;;;13.50;99.90;;;;;;5040796;28;20163;-64
2022/11/04 09:17:37;;;;;;;10.73;6.47;;;13.50;99.90;;;;;;5047516;28;20059;-69
2022/11/04 09:20:03;;;;;;;15.43;6.57;;;13.50;99.90;;;;;;5053478;28;20029;-72
2022/11/04 09:22:30;;;;;;;9.55;5.30;;;13.50;99.90;;;;;;5051998;28;20549;-67
2022/11/04 09:24:56;;;;;;;7.20;5.15;;;13.50;99.90;;;;;;5059552;28;20124;-71
2022/11/04 09:27:21;;;;;;;10.30;4.43;;;13.50;99.90;;;;;;5062870;28;20111;-71
2022/11/04 09:29:47;;;;;;;7.78;4.50;;;13.50;99.90;;;;;;5063127;28;20029;-64
2022/11/04 09:32:12;;;;;;;6.40;3.92;;;13.50;99.90;;;;;;5041398;28;20577;-72
2022/11/04 09:34:38;;;;;;;11.20;4.82;;;13.40;99.90;;;;;;5047905;28;20103;-71
2022/11/04 09:37:03;;;;;;;11.07;5.35;;;13.40;99.90;;;;;;5042980;28;20021;-69
2022/11/04 09:39:29;;;;;;;10.20;4.80;;;13.50;99.90;;;;;;5047304;28;20029;-68
2022/11/04 09:42:16;;;;;;;9.00;4.95;;;13.50;99.90;;;;;;5044442;28;20474;-72
2022/11/04 09:45:08;;;;;;;10.43;5.63;;;13.50;99.90;;;;;;5046475;28;20390;-68
2022/11/04 09:47:35;;;;;;;9.90;6.05;;;13.50;99.90;;;;;;5047913;28;20028;-67
2022/11/04 09:50:02;;;;;;;14.40;6.70;;;13.50;99.90;;;;;;5050272;28;20020;-71
2022/11/04 09:52:36;;;;;;;9.57;6.65;;;13.50;99.90;;;;;;5064633;28;20029;-63
2022/11/04 09:55:23;;;;;;;15.05;7.38;;;13.60;99.90;;;;;;5053999;28;20029;-74
2022/11/04 09:57:57;;;;;;;9.88;6.32;;;13.60;99.90;;;;;;5043154;28;20574;-73
2022/11/04 10:00:23;;;;;;;11.73;6.75;;;13.60;99.90;;;;;;5041958;28;20033;-72
2022/11/04 10:03:12;;;;;;;12.93;6.35;;;13.60;99.90;;;;;;5043507;28;20090;-71
2022/11/04 10:06:01;;;;;;;11.23;6.40;;;13.60;99.90;;;;;;5045846;28;20037;-70
2022/11/04 10:08:38;;;;;;;11.02;6.57;;;13.60;99.90;;;;;;5039684;28;20033;-60
2022/11/04 10:11:34;;;;;;;8.25;6.47;;;13.70;99.90;;;;;;5038365;28;20110;-68
2022/11/04 10:14:07;;;;;;;12.43;6.70;;;13.70;99.90;;;;;;5048966;28;20103;-62
2022/11/04 10:17:03;;;;;;;15.50;6.93;;;13.70;99.90;;;;;;5057630;28;20450;-64
2022/11/04 10:20:21;;;;;;;13.60;8.35;;;13.70;99.90;;;;;;5048557;28;20025;-74
2022/11/04 10:23:16;;;;;;;13.40;7.75;;;13.70;99.90;;;;;;5052443;28;20041;-70
2022/11/04 10:26:06;;;;;;;12.65;7.15;;;13.70;99.90;;;;;;5057788;28;20033;-74
2022/11/04 10:28:42;;;;;;;16.67;8.05;;;13.70;99.90;;;;;;5039300;28;20028;-73
2022/11/04 10:31:15;;;;;;;13.93;9.55;;;13.70;99.90;;;;;;5063828;28;20400;-74
2022/11/04 10:33:52;;;;;;;12.38;8.27;;;13.70;99.90;;;;;;5059877;28;20032;-71
2022/11/04 10:36:18;;;;;;;10.43;8.40;;;13.80;99.90;;;;;;5056040;28;20428;-70
2022/11/04 10:38:49;;;;;;;12.07;8.52;;;13.80;99.90;;;;;;5068076;28;20477;-70
2022/11/04 10:41:28;;;;;;;10.43;7.88;;;13.80;99.90;;;;;;5064019;28;20049;-70
2022/11/04 10:44:03;;;;;;;13.48;8.35;;;13.80;99.90;;;;;;5058642;28;20147;-70
2022/11/04 10:46:55;;;;;;;15.98;8.90;;;13.80;99.90;;;;;;5042872;28;20446;-70
2022/11/04 10:49:54;;;;;;;13.55;7.63;;;13.90;99.90;;;;;;5061426;28;20028;-70
2022/11/04 10:52:20;;;;;;;10.90;9.23;;;13.90;99.90;;;;;;5062483;28;20093;-65
2022/11/04 10:54:47;;;;;;;12.65;8.73;;;13.90;99.90;;;;;;5060822;28;20028;-63
2022/11/04 10:57:31;;;;;;;14.80;8.48;;;14.00;99.90;;;;;;5071432;28;20048;-67
2022/11/04 10:59:59;;;;;;;10.05;7.85;;;14.00;99.90;;;;;;5057261;28;20027;-64
2022/11/04 11:02:36;;;;;;;12.85;8.43;;;14.00;99.90;;;;;;5040041;28;20027;-70
2022/11/04 11:05:23;;;;;;;12.00;8.82;;;14.10;99.90;;;;;;5073069;28;20082;-74
2022/11/04 11:07:55;;;;;;;11.88;8.15;;;14.10;99.90;;;;;;5055861;28;20053;-77
2022/11/04 11:10:29;;;;;;;11.27;7.93;;;14.10;99.90;;;;;;5058220;28;20024;-76
2022/11/04 11:13:05;;;;;;;14.65;8.98;;;14.10;99.90;;;;;;5059819;28;20124;-75
2022/11/04 11:15:36;;;;;;;14.07;9.02;;;14.10;99.90;;;;;;5055028;28;20121;-76
2022/11/04 11:18:05;;;;;;;12.38;8.85;;;14.10;99.90;;;;;;5067824;28;20476;-64
2022/11/04 11:20:32;;;;;;;12.05;8.85;;;14.20;99.90;;;;;;5052185;28;20071;-68
2022/11/04 11:22:58;;;;;;;15.40;8.73;;;14.20;99.90;;;;;;5053668;28;20021;-64
2022/11/04 11:25:24;;;;;;;13.00;8.35;;;14.20;99.90;;;;;;5052994;28;20592;-68
2022/11/04 11:28:02;;;;;;;14.02;9.13;;;14.20;99.90;;;;;;5053502;28;20500;-66
2022/11/04 11:30:30;;;;;;;11.45;8.30;;;14.20;99.90;;;;;;5054042;28;20090;-66
2022/11/04 11:33:02;;;;;;;15.93;9.55;;;14.20;99.90;;;;;;5054128;28;20551;-62
2022/11/04 11:35:40;;;;;;;13.65;9.02;;;14.30;99.90;;;;;;5053470;28;20559;-71
2022/11/04 11:38:17;;;;;;;13.80;8.77;;;14.30;99.90;;;;;;5054524;28;20017;-69
2022/11/04 11:40:43;;;;;;;13.38;8.65;;;14.30;99.90;;;;;;5053530;28;20033;-71
2022/11/04 11:43:25;;;;;;;11.32;7.53;;;14.30;99.90;;;;;;5053607;28;20013;-65
2022/11/04 11:45:53;;;;;;;13.70;7.80;;;14.30;99.90;;;;;;5053881;28;20100;-70
2022/11/04 11:48:31;;;;;;;11.60;7.70;;;14.30;99.90;;;;;;5054051;28;20040;-71
2022/11/04 11:50:58;;;;;;;10.88;7.70;;;14.30;99.90;;;;;;5054013;28;20212;-66
2022/11/04 11:53:25;;;;;;;13.30;7.47;;;14.40;99.90;;;;;;5054186;28;20090;-65
2022/11/04 11:56:28;;;;;;;13.90;7.38;;;14.40;99.90;;;;;;5054186;28;20029;-64
2022/11/04 11:59:04;;;;;;;;;;;14.40;99.90;;;;;;5054327;28;20037;-63
2022/11/04 12:01:33;;;;;;;12.15;6.32;;;14.40;99.90;;;;;;5053604;28;19909;-64
2022/11/04 12:03:59;;;;;;;11.63;6.50;;;14.40;99.90;;;;;;5053335;28;20064;-69
2022/11/04 12:07:07;;;;;;;10.30;5.93;;;14.40;99.90;;;;;;5053684;28;20070;-69
2022/11/04 12:09:56;;;;;;;10.02;6.05;;;14.40;99.90;;;;;;5033463;28;20022;-72
2022/11/04 12:12:34;;;;;;;9.65;5.47;;;14.40;99.90;;;;;;5038030;28;20533;-70
2022/11/04 12:15:05;;;;;;;11.77;5.78;;;14.50;99.90;;;;;;5054144;28;20174;-71
2022/11/04 12:17:40;;;;;;;9.82;4.53;;;14.50;99.90;;;;;;5054044;28;20458;-70
2022/11/04 12:20:24;;;;;;;11.40;4.93;;;14.50;99.90;;;;;;5053277;28;20112;-65
2022/11/04 12:23:16;;;;;;;10.70;5.25;;;14.50;99.90;;;;;;5052179;28;20067;-67
2022/11/04 12:25:44;;;;;;;5.82;4.50;;;14.50;99.90;;;;;;5053217;28;20029;-70
2022/11/04 12:28:43;;;;;;;10.48;4.50;;;14.50;99.90;;;;;;5052425;28;20071;-64
2022/11/04 12:31:33;;;;;;;10.45;4.18;;;14.50;99.90;;;;;;5050779;28;20117;-62
2022/11/04 12:34:10;;;;;;;6.95;4.05;;;14.50;99.90;;;;;;5051131;28;20032;-63
2022/11/04 12:37:04;;;;;;;7.45;3.90;;;14.50;99.90;;;;;;5052448;28;20326;-64
2022/11/04 12:39:55;;;;;;;10.82;3.75;;;14.50;99.90;;;;;;5049614;28;20062;-68
2022/11/04 12:42:26;;;;;;;7.97;2.97;;;14.60;99.90;;;;;;5050855;28;20032;-62
2022/11/04 12:45:15;;;;;;;10.15;2.95;;;14.60;99.90;;;;;;5051726;28;20160;-64
2022/11/04 12:47:43;;;;;;;5.63;2.08;;;14.60;99.90;;;;;;5058323;28;20040;-69
2022/11/04 12:50:38;;;;;;;7.10;2.10;;;14.60;99.90;;;;;;5048969;28;20029;-69
2022/11/04 12:53:19;;;;;;;1.77;0.60;;;14.60;99.90;;;;;;5046314;28;20017;-67
2022/11/04 12:55:53;;;;;;;3.70;1.17;;;14.60;99.90;;;;;;5040524;28;20075;-63
2022/11/04 12:58:37;;;;;;;6.97;1.67;;;14.60;99.90;;;;;;5057421;28;20032;-61
2022/11/04 13:01:10;;;;;;;4.38;1.15;;;14.60;99.90;;;;;;5037446;28;20082;-61
2022/11/04 13:03:49;;;;;;;4.85;1.20;;;14.60;99.90;;;;;;5051647;28;20021;-64
2022/11/04 13:06:43;;;;;;;5.35;1.10;;;14.70;99.90;;;;;;5051047;28;20065;-62
2022/11/04 13:09:30;;;;;;;3.60;0.77;;;14.70;99.90;;;;;;5043755;28;20028;-67
2022/11/04 13:12:05;;;;;;;4.97;1.20;;;14.70;99.90;;;;;;5053509;28;20025;-61
2022/11/04 13:14:49;;;;;;;4.60;0.88;;;14.70;99.90;;;;;;5062818;28;20032;-61
2022/11/04 13:17:20;;;;;;;4.63;1.33;;;14.80;99.90;;;;;;5044041;28;20068;-61
2022/11/04 13:19:50;;;;;;;4.50;1.25;;;14.80;99.90;;;;;;5054574;28;20028;-62
2022/11/04 13:22:20;;;;;;;2.75;0.70;;;14.80;99.90;;;;;;5065053;28;20039;-61
2022/11/04 13:25:02;;;;;;;1.70;0.57;;;14.80;99.40;;;;;;5054920;28;20025;-64
2022/11/04 13:27:34;;;;;;;0.45;0.10;;;14.80;98.80;;;;;;5065044;28;20028;-62
2022/11/04 13:30:26;;;;;;;4.85;0.60;;;14.80;98.30;;;;;;5063500;28;20025;-60
2022/11/04 13:32:54;;;;;;;;;;;14.80;98.30;;;;;;5054603;28;20094;-70
2022/11/04 13:35:20;;;;;;;2.60;0.30;;;14.80;98.50;;;;;;5064949;28;19905;-66